Time;durP1;ratioP1;P1;durP2;ratioP2;P2;SDS_P1;SDS_P2;PMS_P1;PMS_P2;Temp;Humidity;BMP_temperature;BMP_pressure;BME280_temperature;BME280_humidity;BME280_pressure;Samples;Min_cycle;Max_cycle;Signal;HPM_P1;HPM_P2
2021/08/27 00:23:40;;;;;;;4.40;1.48;;;13.80;99.90;;;11.04;100.00;101248.19;2569021;30;138004;-39
2021/08/27 00:26:08;;;;;;;4.00;1.40;;;12.90;99.90;;;11.36;100.00;101300.38;2569946;30;137517;-39
2021/08/27 00:28:35;;;;;;;4.88;1.67;;;12.80;99.90;;;11.37;100.00;101296.59;2570549;30;136858;-39
2021/08/27 00:31:03;;;;;;;5.03;1.40;;;12.80;99.90;;;11.40;100.00;101295.34;2568831;30;137462;-39
2021/08/27 00:33:30;;;;;;;4.57;1.40;;;12.80;99.90;;;11.39;100.00;101295.53;2567293;30;138419;-38
2021/08/27 00:35:58;;;;;;;6.70;1.27;;;12.80;99.90;;;11.37;100.00;101296.59;2568733;30;138353;-38
2021/08/27 00:38:25;;;;;;;3.47;1.20;;;12.80;99.90;;;11.34;100.00;101288.81;2570438;30;137413;-39
2021/08/27 00:40:53;;;;;;;7.35;2.17;;;12.90;99.90;;;11.31;100.00;101291.13;2569181;30;139157;-39
2021/08/27 00:43:20;;;;;;;4.15;1.40;;;12.80;99.90;;;11.25;100.00;101290.06;2568880;30;136929;-39
2021/08/27 00:45:48;;;;;;;3.83;1.20;;;12.80;99.90;;;11.17;100.00;101295.72;2568971;30;137201;-38
2021/08/27 00:48:16;;;;;;;;;;;12.70;99.90;;;11.04;100.00;101291.88;2568243;30;136785;-39
2021/08/27 00:50:47;;;;;;;2.65;1.02;;;12.60;99.90;;;11.00;100.00;101297.94;2569063;30;138295;-39
2021/08/27 00:53:15;;;;;;;4.00;1.00;;;12.50;99.90;;;10.92;99.64;101297.06;2569890;30;136933;-39
2021/08/27 00:55:45;;;;;;;4.97;1.20;;;12.50;99.90;;;10.87;99.35;101296.84;2567767;30;136821;-39
2021/08/27 00:58:14;;;;;;;3.97;1.50;;;12.40;99.90;;;10.82;99.15;101298.47;2571547;30;137502;-39
2021/08/27 01:00:46;;;;;;;3.03;1.10;;;12.30;99.90;;;10.77;99.06;101290.94;2569762;30;138325;-38
2021/08/27 01:03:15;;;;;;;2.42;1.10;;;12.30;99.90;;;10.70;99.23;101290.88;2571415;30;138515;-39
2021/08/27 01:05:51;;;;;;;2.50;0.85;;;12.20;99.90;;;10.70;99.24;101299.06;2567253;30;138969;-39
2021/08/27 01:08:55;;;;;;;2.35;0.90;;;12.20;99.90;;;10.71;99.40;101280.78;2569132;30;137584;-39
2021/08/27 01:11:48;;;;;;;2.70;1.02;;;12.20;99.90;;;10.71;99.43;101287.09;2570333;30;138660;-38
2021/08/27 01:14:46;;;;;;;5.18;0.90;;;12.20;99.90;;;10.70;99.12;101285.44;2569527;30;138810;-39
2021/08/27 01:17:40;;;;;;;3.42;1.02;;;12.20;99.90;;;10.70;99.13;101279.97;2572001;30;138133;-39
2021/08/27 01:20:52;;;;;;;2.92;1.00;;;12.20;99.90;;;10.73;99.96;101279.56;2570856;30;138025;-39
2021/08/27 01:23:41;;;;;;;3.03;1.05;;;12.20;99.90;;;10.73;99.94;101284.16;2571604;30;137494;-39
2021/08/27 01:26:11;;;;;;;3.60;1.00;;;12.20;99.90;;;10.71;99.81;101286.25;2571050;30;137782;-39
2021/08/27 01:28:46;;;;;;;3.78;0.93;;;12.20;99.90;;;10.64;99.78;101281.59;2569840;30;138209;-39
2021/08/27 01:31:58;;;;;;;6.53;1.00;;;12.20;99.90;;;10.59;99.74;101292.28;2570308;30;137577;-39
2021/08/27 01:34:42;;;;;;;3.03;1.05;;;12.10;99.90;;;10.52;99.45;101294.16;2569561;30;138448;-40
2021/08/27 01:37:20;;;;;;;2.38;0.95;;;12.10;99.90;;;10.47;99.12;101294.75;2571088;30;137299;-39
2021/08/27 01:39:51;;;;;;;;;;;12.00;99.90;;;10.43;99.23;101296.19;2570364;30;137136;-39
2021/08/27 01:42:24;;;;;;;2.55;0.70;;;12.00;99.90;;;10.38;98.86;101295.06;2568957;30;137806;-39
2021/08/27 01:44:56;;;;;;;1.50;0.70;;;11.90;99.90;;;10.33;98.50;101292.91;2568129;30;138422;-39
2021/08/27 01:47:31;;;;;;;3.22;0.60;;;11.90;99.90;;;10.27;98.50;101296.44;2570894;30;138157;-39
2021/08/27 01:50:06;;;;;;;3.33;0.73;;;11.80;99.90;;;10.21;98.92;101296.22;2570860;30;137769;-39
2021/08/27 01:52:36;;;;;;;3.67;0.90;;;11.80;99.90;;;10.17;98.81;101294.06;2570868;30;137448;-39
2021/08/27 01:55:06;;;;;;;6.53;1.27;;;11.70;99.90;;;10.11;98.65;101300.31;2571239;30;139086;-39
2021/08/27 01:57:35;;;;;;;2.83;0.80;;;11.70;99.90;;;10.08;98.48;101304.31;2568127;30;137446;-40
2021/08/27 02:00:06;;;;;;;5.97;1.15;;;11.60;99.90;;;10.06;98.41;101306.34;2570889;30;138361;-38
2021/08/27 02:02:37;;;;;;;2.28;0.80;;;11.60;99.90;;;10.05;98.59;101291.91;2571170;30;136829;-39
2021/08/27 02:05:08;;;;;;;3.13;0.95;;;11.60;99.90;;;10.05;98.82;101291.03;2571482;30;139249;-38
2021/08/27 02:07:36;;;;;;;2.65;1.00;;;11.60;99.90;;;10.11;99.13;101287.53;2570838;30;138434;-39
2021/08/27 02:10:04;;;;;;;2.92;1.20;;;11.60;99.90;;;10.25;99.98;101293.09;2569928;30;138221;-39
2021/08/27 02:12:32;;;;;;;2.38;1.13;;;11.70;99.90;;;10.33;100.00;101285.59;2569448;30;137744;-39
2021/08/27 02:15:01;;;;;;;4.45;1.00;;;11.80;99.90;;;10.41;100.00;101283.78;2569148;30;138117;-39
2021/08/27 02:17:30;;;;;;;4.10;1.27;;;11.80;99.90;;;10.41;100.00;101284.63;2568954;30;137562;-38
2021/08/27 02:20:00;;;;;;;4.40;1.20;;;11.90;99.90;;;10.50;100.00;101291.59;2569393;30;138220;-39
2021/08/27 02:22:32;;;;;;;4.75;0.98;;;11.90;99.90;;;10.52;100.00;101288.69;2570155;30;137789;-39
2021/08/27 02:25:15;;;;;;;3.55;0.90;;;12.00;99.90;;;10.56;100.00;101294.56;2568189;30;138207;-39
2021/08/27 02:27:45;;;;;;;3.47;1.00;;;12.00;99.90;;;10.57;100.00;101290.78;2570504;30;137537;-39
2021/08/27 02:30:16;;;;;;;3.40;1.00;;;12.00;99.90;;;10.60;100.00;101304.03;2570568;30;137446;-39
2021/08/27 02:32:47;;;;;;;3.70;0.95;;;12.10;99.90;;;10.62;100.00;101300.06;2570277;30;137030;-39
2021/08/27 02:35:16;;;;;;;1.40;0.80;;;12.10;99.90;;;10.64;100.00;101299.88;2566447;30;139119;-39
2021/08/27 02:37:48;;;;;;;4.78;1.02;;;12.10;99.90;;;10.68;100.00;101295.69;2569031;30;136881;-39
2021/08/27 02:40:16;;;;;;;4.10;1.10;;;12.10;99.90;;;10.69;100.00;101294.66;2568486;30;137401;-39
2021/08/27 02:42:44;;;;;;;2.40;0.88;;;12.10;99.90;;;10.71;100.00;101294.44;2567173;30;137373;-39
2021/08/27 02:45:12;;;;;;;5.38;1.08;;;12.10;99.90;;;10.71;100.00;101297.16;2569131;30;137529;-39
2021/08/27 02:47:40;;;;;;;3.83;1.35;;;12.20;99.90;;;10.73;100.00;101290.47;2569016;30;137550;-39
2021/08/27 02:50:08;;;;;;;5.15;1.60;;;12.20;99.90;;;10.74;100.00;101291.31;2570308;30;138193;-39
2021/08/27 02:52:57;;;;;;;4.45;1.33;;;12.20;99.90;;;10.76;100.00;101300.97;2570579;30;136875;-39
2021/08/27 02:55:35;;;;;;;4.32;1.17;;;12.20;99.90;;;10.78;100.00;101292.59;2568975;30;139290;-39
2021/08/27 02:58:20;;;;;;;3.75;1.00;;;12.20;99.90;;;10.79;100.00;101294.28;2568583;30;137601;-39
2021/08/27 03:01:24;;;;;;;2.60;1.05;;;12.20;99.90;;;10.82;100.00;101302.06;2566142;30;138678;-39
2021/08/27 03:04:13;;;;;;;2.78;0.98;;;12.20;99.90;;;10.85;100.00;101298.06;2569475;30;137514;-39
2021/08/27 03:07:07;;;;;;;3.50;1.17;;;12.30;99.90;;;10.87;100.00;101295.97;2568911;30;138545;-39
2021/08/27 03:09:39;;;;;;;3.03;1.13;;;12.30;99.90;;;10.89;100.00;101297.47;2568453;30;137441;-39
2021/08/27 03:12:11;;;;;;;4.20;1.02;;;12.40;99.90;;;10.92;100.00;101301.69;2570076;30;137288;-40
2021/08/27 03:14:51;;;;;;;4.30;1.30;;;12.40;99.90;;;10.92;100.00;101299.78;2570788;30;137749;-39
2021/08/27 03:17:22;;;;;;;6.72;1.20;;;12.30;99.90;;;10.96;100.00;101305.69;2569318;30;138303;-39
2021/08/27 03:20:09;;;;;;;7.85;1.48;;;12.40;99.90;;;10.96;100.00;101302.13;2568982;30;138186;-39
2021/08/27 03:22:59;;;;;;;4.93;1.10;;;12.40;99.90;;;10.96;100.00;101299.38;2570208;30;138331;-38
2021/08/27 03:25:29;;;;;;;5.07;1.35;;;12.40;99.90;;;10.99;100.00;101309.91;2570921;30;136900;-38
2021/08/27 03:28:05;;;;;;;3.55;1.13;;;12.40;99.90;;;11.02;100.00;101304.88;2569295;30;138199;-39
2021/08/27 03:30:35;;;;;;;3.08;1.05;;;12.50;99.90;;;11.04;100.00;101301.97;2569065;30;137658;-39
2021/08/27 03:33:11;;;;;;;6.03;1.45;;;12.50;99.90;;;11.05;100.00;101293.56;2566553;30;139350;-39
2021/08/27 03:35:39;;;;;;;4.40;1.58;;;12.50;99.90;;;11.07;100.00;101293.34;2568487;30;137379;-39
2021/08/27 03:38:10;;;;;;;3.88;1.17;;;12.50;99.90;;;11.06;100.00;101292.50;2569032;30;138336;-39
2021/08/27 03:40:38;;;;;;;4.90;1.20;;;12.50;99.90;;;11.07;100.00;101285.16;2569781;30;137356;-39
2021/08/27 03:43:07;;;;;;;4.55;1.38;;;12.50;99.90;;;11.12;100.00;101287.25;2569763;30;138208;-39
2021/08/27 03:45:36;;;;;;;4.85;1.30;;;12.60;99.90;;;11.12;100.00;101287.25;2570161;30;137574;-39
2021/08/27 03:48:04;;;;;;;3.17;1.30;;;12.50;99.90;;;11.12;100.00;101288.13;2570474;30;138497;-39
2021/08/27 03:50:33;;;;;;;4.15;1.35;;;12.50;99.90;;;11.16;100.00;101294.03;2569100;30;137524;-38
2021/08/27 03:53:01;;;;;;;3.88;1.17;;;12.60;99.90;;;11.16;100.00;101292.13;2568681;30;139121;-39
2021/08/27 03:55:30;;;;;;;3.33;1.30;;;12.60;99.90;;;11.18;100.00;101298.22;2570326;30;138544;-39
2021/08/27 03:58:00;;;;;;;2.67;1.15;;;12.60;99.90;;;11.19;100.00;101299.91;2569394;30;138342;-40
2021/08/27 04:00:38;;;;;;;6.22;1.30;;;12.60;99.90;;;11.24;100.00;101302.03;2566003;30;137527;-39
2021/08/27 04:03:07;;;;;;;3.75;1.25;;;12.60;99.90;;;11.25;100.00;101300.13;2568565;30;137393;-39
2021/08/27 04:05:35;;;;;;;5.32;1.35;;;12.60;99.90;;;11.28;100.00;101299.72;2569449;30;137435;-39
2021/08/27 04:08:03;;;;;;;3.17;1.20;;;12.70;99.90;;;11.30;100.00;101300.38;2567817;30;138422;-39
2021/08/27 04:10:30;;;;;;;5.47;1.67;;;12.70;99.90;;;11.30;100.00;101298.47;2569368;30;138463;-39
2021/08/27 04:12:58;;;;;;;5.50;1.20;;;12.70;99.90;;;11.34;100.00;101299.72;2570256;30;137460;-39
2021/08/27 04:15:25;;;;;;;6.10;1.20;;;12.70;99.90;;;11.36;100.00;101297.63;2570814;30;137509;-39
2021/08/27 04:17:53;;;;;;;2.53;1.20;;;12.80;99.90;;;11.40;100.00;101297.22;2565797;30;139128;-39
2021/08/27 04:20:20;;;;;;;4.75;1.23;;;12.80;99.90;;;11.41;100.00;101293.47;2568492;30;137037;-39
2021/08/27 04:22:49;;;;;;;2.55;1.25;;;12.80;99.90;;;11.44;100.00;101290.31;2569500;30;138228;-39
2021/08/27 04:25:16;;;;;;;3.55;1.20;;;12.80;99.90;;;11.43;100.00;101288.63;2568247;30;136835;-39
2021/08/27 04:27:44;;;;;;;7.63;1.40;;;12.80;99.90;;;11.47;100.00;101296.19;2568542;30;138996;-39
2021/08/27 04:30:11;;;;;;;5.85;1.10;;;12.90;99.90;;;11.47;100.00;101296.19;2568688;30;136915;-39
2021/08/27 04:32:39;;;;;;;3.95;1.60;;;12.80;99.90;;;11.51;100.00;101302.09;2568862;30;137776;-39
2021/08/27 04:35:07;;;;;;;3.60;1.30;;;12.90;99.90;;;11.50;100.00;101295.78;2568040;30;137398;-39
2021/08/27 04:37:35;;;;;;;2.97;0.95;;;12.90;99.90;;;11.52;100.00;101292.84;2568259;30;137326;-39
2021/08/27 04:40:03;;;;;;;4.05;1.30;;;12.90;99.90;;;11.51;100.00;101302.09;2568757;30;138204;-39
2021/08/27 04:42:31;;;;;;;5.47;1.27;;;12.90;99.90;;;11.49;100.00;101299.56;2569644;30;138473;-39
2021/08/27 04:44:58;;;;;;;3.08;1.20;;;12.90;99.90;;;11.47;100.00;101300.81;2569759;30;137873;-39
2021/08/27 04:47:26;;;;;;;6.63;1.30;;;12.90;99.90;;;11.48;100.00;101302.50;2571457;30;138416;-39
2021/08/27 04:49:53;;;;;;;2.45;1.00;;;12.90;99.90;;;11.47;100.00;101300.81;2568673;30;136891;-39
2021/08/27 04:52:21;;;;;;;2.50;1.27;;;12.90;99.90;;;11.51;100.00;101302.09;2568370;30;138460;-39
2021/08/27 04:54:48;;;;;;;5.30;1.73;;;12.90;99.90;;;11.50;100.00;101306.69;2568586;30;137402;-39
2021/08/27 04:57:16;;;;;;;2.50;1.10;;;12.90;99.90;;;11.54;100.00;101309.00;2568371;30;138548;-39
2021/08/27 04:59:46;;;;;;;4.57;0.98;;;12.90;99.90;;;11.54;100.00;101306.28;2568966;30;136804;-38
2021/08/27 05:02:13;;;;;;;3.30;1.42;;;12.90;99.90;;;11.54;100.00;101309.00;2567795;30;138994;-39
2021/08/27 05:04:41;;;;;;;;;;;12.90;99.90;;;11.56;100.00;101315.13;2568815;30;137529;-39
2021/08/27 05:07:09;;;;;;;8.00;1.30;;;13.00;99.90;;;11.56;100.00;101309.69;2567463;30;138244;-39
2021/08/27 05:09:36;;;;;;;5.82;1.25;;;13.00;99.90;;;11.56;100.00;101309.69;2568407;30;137407;-39
2021/08/27 05:12:05;;;;;;;5.60;1.27;;;13.00;99.90;;;11.58;100.00;101313.88;2568543;30;137481;-39
2021/08/27 05:14:51;;;;;;;3.97;1.20;;;13.00;99.90;;;11.59;100.00;101315.56;2567435;30;137628;-39
2021/08/27 05:17:25;;;;;;;3.33;1.27;;;13.00;99.90;;;11.66;100.00;101316.41;2568955;30;137934;-39
2021/08/27 05:19:53;;;;;;;;;;;13.00;99.90;;;11.66;100.00;101315.56;2571792;30;137080;-39
2021/08/27 05:22:21;;;;;;;3.92;1.45;;;13.00;99.90;;;11.69;100.00;101320.63;2568767;30;138396;-39
2021/08/27 05:24:49;;;;;;;8.73;1.63;;;13.10;99.90;;;11.74;100.00;101314.53;2568977;30;137415;-38
2021/08/27 05:27:19;;;;;;;5.78;1.45;;;13.10;99.90;;;11.79;100.00;101325.69;2568793;30;137219;-39
2021/08/27 05:29:47;;;;;;;4.30;1.52;;;13.10;99.90;;;11.73;100.00;101302.75;2568397;30;137507;-39
2021/08/27 05:32:15;;;;;;;5.20;1.50;;;13.20;99.90;;;11.87;100.00;101322.75;2566781;30;138279;-38
2021/08/27 05:34:42;;;;;;;4.07;1.52;;;13.20;99.90;;;11.87;100.00;101330.94;2567886;30;137755;-39
2021/08/27 05:37:10;;;;;;;3.70;1.60;;;13.20;99.90;;;11.90;100.00;101332.44;2568829;30;138628;-39
2021/08/27 05:39:38;;;;;;;3.35;1.60;;;13.30;99.90;;;11.94;100.00;101334.53;2570805;30;137709;-39
2021/08/27 05:42:06;;;;;;;5.93;1.80;;;13.30;99.90;;;11.98;100.00;101331.38;2565650;30;138187;-39
2021/08/27 05:44:34;;;;;;;4.30;1.70;;;13.30;99.90;;;11.99;100.00;101322.94;2569257;30;138383;-39
2021/08/27 05:47:02;;;;;;;6.80;2.05;;;13.30;99.90;;;12.12;100.00;101329.53;2570571;30;138341;-38
2021/08/27 05:49:30;;;;;;;6.63;2.45;;;13.40;99.90;;;12.15;100.00;101327.19;2567625;30;136771;-39
2021/08/27 05:51:57;;;;;;;5.63;1.83;;;13.50;99.90;;;12.18;100.00;101329.50;2570186;30;138691;-39
2021/08/27 05:54:25;;;;;;;4.93;1.63;;;13.50;99.90;;;12.20;100.00;101338.38;2569335;30;137188;-39
2021/08/27 05:56:53;;;;;;;6.07;1.58;;;13.50;99.90;;;12.23;100.00;101337.94;2569827;30;136807;-39
2021/08/27 05:59:21;;;;;;;4.25;1.40;;;13.50;99.90;;;12.29;100.00;101344.44;2568642;30;137465;-39
2021/08/27 06:01:48;;;;;;;;;;;13.60;99.90;;;12.31;100.00;101339.59;2570220;30;137763;-39
2021/08/27 06:04:16;;;;;;;3.50;1.27;;;13.60;99.90;;;12.40;100.00;101348.44;2568648;30;137304;-38
2021/08/27 06:06:48;;;;;;;5.97;1.65;;;13.70;99.90;;;12.44;100.00;101349.69;2567111;30;139023;-38
2021/08/27 06:09:16;;;;;;;7.88;1.60;;;13.70;99.90;;;12.52;100.00;101351.38;2568609;30;138070;-39
2021/08/27 06:11:43;;;;;;;4.28;1.30;;;13.80;99.90;;;12.53;100.00;101344.84;2570603;30;138152;-40
2021/08/27 06:14:11;;;;;;;5.03;1.63;;;13.80;99.90;;;12.61;100.00;101350.09;2566897;30;138303;-40
2021/08/27 06:16:39;;;;;;;4.85;1.50;;;13.90;99.90;;;12.68;100.00;101347.34;2571347;30;137579;-39
2021/08/27 06:19:07;;;;;;;;;;;14.00;99.90;;;12.76;100.00;101352.59;2569326;30;136955;-39
2021/08/27 06:21:37;;;;;;;3.72;1.40;;;14.00;99.90;;;12.86;100.00;101352.13;2570729;30;138207;-39
2021/08/27 06:24:07;;;;;;;3.58;1.23;;;14.10;99.90;;;12.98;100.00;101349.56;2568001;30;138019;-40
2021/08/27 06:26:34;;;;;;;3.35;1.50;;;14.20;99.90;;;13.07;100.00;101348.28;2568685;30;138332;-40
2021/08/27 06:29:03;;;;;;;5.20;1.35;;;14.30;99.90;;;13.13;100.00;101343.84;2567481;30;137529;-40
2021/08/27 06:31:32;;;;;;;5.95;1.60;;;14.30;99.90;;;13.22;99.82;101338.94;2566317;30;139640;-40
2021/08/27 06:34:00;;;;;;;5.55;1.58;;;14.40;99.90;;;13.30;99.92;101338.72;2565839;30;137381;-40
2021/08/27 06:36:28;;;;;;;;;;;14.50;99.90;;;13.38;99.59;101341.19;2568758;30;137239;-40
2021/08/27 06:38:56;;;;;;;6.65;2.45;;;14.60;99.90;;;13.49;99.48;101341.59;2569412;30;137082;-40
2021/08/27 06:41:24;;;;;;;6.60;2.15;;;14.60;99.90;;;13.57;99.26;101348.72;2566658;30;138542;-40
2021/08/27 06:43:51;;;;;;;6.15;2.42;;;14.70;99.90;;;13.57;99.22;101335.88;2568372;30;137504;-40
2021/08/27 06:46:25;;;;;;;8.27;2.38;;;14.80;99.90;;;13.65;98.10;101337.47;2567462;30;138362;-40
2021/08/27 06:48:53;;;;;;;5.22;2.40;;;14.80;99.90;;;13.71;98.55;101338.50;2568034;30;136930;-40
2021/08/27 06:51:21;;;;;;;5.78;2.45;;;14.90;99.90;;;13.83;97.64;101346.88;2569364;30;138150;-40
2021/08/27 06:53:53;;;;;;;7.25;2.85;;;15.00;99.90;;;13.75;96.20;101339.75;2567499;30;137644;-40
2021/08/27 06:56:22;;;;;;;6.32;2.55;;;15.00;99.90;;;13.82;97.83;101337.81;2567796;30;138465;-40
2021/08/27 06:58:50;;;;;;;5.70;2.53;;;15.00;99.90;;;13.89;97.41;101351.47;2567871;30;137392;-41
2021/08/27 07:01:18;;;;;;;6.32;2.10;;;15.10;99.90;;;13.84;95.85;101346.66;2566521;30;139093;-41
2021/08/27 07:03:46;;;;;;;8.90;1.88;;;15.10;99.90;;;13.80;94.90;101348.16;2567468;30;136747;-40
2021/08/27 07:06:14;;;;;;;5.25;1.83;;;15.00;99.90;;;13.80;95.08;101349.00;2566668;30;138108;-40
2021/08/27 07:08:42;;;;;;;8.05;2.00;;;15.10;99.90;;;13.72;95.39;101345.66;2567748;30;136782;-42
2021/08/27 07:11:11;;;;;;;7.50;2.15;;;15.00;99.90;;;13.72;95.50;101348.41;2568186;30;138372;-40
2021/08/27 07:13:39;;;;;;;6.85;2.55;;;15.00;99.90;;;13.77;95.90;101356.81;2567659;30;138101;-41
2021/08/27 07:16:06;;;;;;;8.32;2.33;;;15.00;99.90;;;13.80;96.27;101350.91;2568227;30;138488;-41
2021/08/27 07:18:34;;;;;;;6.03;2.22;;;15.00;99.90;;;13.82;94.31;101354.25;2566482;30;137293;-40
2021/08/27 07:21:02;;;;;;;5.40;1.90;;;15.10;99.90;;;13.91;95.37;101355.66;2567334;30;137212;-41
2021/08/27 07:23:30;;;;;;;;;;;15.10;99.90;;;14.03;92.28;101350.31;2568536;30;137775;-40
2021/08/27 07:25:58;;;;;;;8.00;1.80;;;15.20;99.90;;;14.14;93.19;101350.63;2566770;30;138898;-41
2021/08/27 07:28:26;;;;;;;6.13;1.92;;;15.30;99.90;;;14.05;89.29;101361.91;2568221;30;136762;-40
2021/08/27 07:30:53;;;;;;;9.00;1.70;;;15.30;99.90;;;14.02;88.14;101361.50;2568485;30;137512;-41
2021/08/27 07:33:21;;;;;;;;;;;15.30;99.90;;;14.05;92.07;101361.03;2567172;30;137467;-40
2021/08/27 07:35:49;;;;;;;7.63;1.52;;;15.30;99.90;;;14.05;91.20;101358.31;2568525;30;139821;-40
2021/08/27 07:38:17;;;;;;;6.57;1.80;;;15.30;99.90;;;14.05;93.23;101366.53;2568822;30;136826;-40
2021/08/27 07:40:45;;;;;;;5.65;1.88;;;15.30;99.90;;;14.15;94.63;101364.16;2568084;30;138913;-40
2021/08/27 07:43:13;;;;;;;8.07;2.17;;;15.30;99.90;;;14.23;95.68;101374.84;2567939;30;138336;-40
2021/08/27 07:45:41;;;;;;;;;;;15.40;99.90;;;14.16;94.14;101371.31;2567776;30;138983;-40
2021/08/27 07:48:08;;;;;;;5.32;1.40;;;15.40;99.90;;;14.15;92.88;101379.75;2569035;30;137559;-40
2021/08/27 07:50:36;;;;;;;3.80;1.40;;;15.40;99.90;;;14.15;93.02;101366.03;2568538;30;139156;-42
2021/08/27 07:53:04;;;;;;;;;;;15.40;99.90;;;14.30;93.70;101368.44;2567764;30;137355;-40
2021/08/27 07:55:32;;;;;;;3.50;1.40;;;15.50;99.90;;;14.44;93.68;101367.28;2568442;30;137952;-41
2021/08/27 07:57:59;;;;;;;5.68;1.52;;;15.50;99.90;;;14.58;92.96;101368.00;2567678;30;136894;-40
2021/08/27 08:00:27;;;;;;;4.00;1.60;;;15.70;99.90;;;14.74;94.17;101374.84;2568106;30;138582;-41
2021/08/27 08:02:55;;;;;;;;;;;15.80;99.90;;;14.87;92.27;101370.28;2568113;30;137685;-41
2021/08/27 08:05:23;;;;;;;3.58;1.52;;;15.90;99.90;;;15.01;92.64;101362.72;2567245;30;138156;-41
2021/08/27 08:07:51;;;;;;;3.53;1.25;;;16.10;99.90;;;15.13;92.10;101371.88;2568265;30;137497;-41
2021/08/27 08:10:19;;;;;;;;;;;16.10;99.90;;;15.19;90.71;101372.88;2567773;30;139593;-43
2021/08/27 08:12:47;;;;;;;4.35;1.42;;;16.20;99.90;;;15.29;91.13;101373.16;2567278;30;137334;-40
2021/08/27 08:15:21;;;;;;;5.22;1.40;;;16.30;99.90;;;15.31;90.28;101367.44;2567558;30;138279;-41
2021/08/27 08:17:49;;;;;;;4.47;1.30;;;16.40;99.90;;;15.38;88.78;101365.44;2567204;30;138962;-41
2021/08/27 08:20:16;;;;;;;2.72;1.05;;;16.40;99.90;;;15.48;87.37;101359.38;2567057;30;138201;-41
2021/08/27 08:22:58;;;;;;;6.88;1.23;;;16.50;99.90;;;15.63;84.74;101368.03;2568015;30;137441;-42
2021/08/27 08:25:26;;;;;;;4.85;1.40;;;16.60;99.90;;;15.88;86.07;101368.97;2568482;30;137461;-40
2021/08/27 08:27:54;;;;;;;4.85;1.33;;;16.80;99.90;;;16.08;87.22;101357.69;2567517;30;138390;-40
2021/08/27 08:30:21;;;;;;;4.03;1.23;;;17.00;99.90;;;16.29;87.38;101358.19;2567063;30;138280;-40
2021/08/27 08:32:49;;;;;;;5.60;1.30;;;17.10;99.90;;;16.43;84.95;101362.38;2568241;30;137558;-41
2021/08/27 08:35:17;;;;;;;;;;;17.30;99.90;;;16.43;82.75;101354.09;2567722;30;138558;-41
2021/08/27 08:37:45;;;;;;;4.85;1.10;;;17.40;99.90;;;16.55;82.49;101362.38;2569538;30;137141;-41
2021/08/27 08:40:14;;;;;;;5.90;1.48;;;17.50;99.90;;;16.56;84.92;101358.53;2568291;30;139066;-43
2021/08/27 08:42:43;;;;;;;5.00;1.00;;;17.50;99.90;;;16.44;82.66;101361.28;2569210;30;137754;-41
2021/08/27 08:45:11;;;;;;;4.57;1.20;;;17.50;99.90;;;16.28;83.70;101367.53;2566622;30;137069;-41
2021/08/27 08:47:44;;;;;;;2.88;1.10;;;17.40;99.90;;;16.18;86.17;101360.69;2567744;30;136939;-42
2021/08/27 08:50:15;;;;;;;4.32;1.10;;;17.30;99.90;;;16.08;85.51;101364.03;2567126;30;137459;-41
2021/08/27 08:52:47;;;;;;;3.17;1.10;;;17.30;99.90;;;16.05;86.46;101360.91;2568677;30;136873;-41
2021/08/27 08:55:15;;;;;;;3.25;1.30;;;17.20;99.90;;;16.09;88.81;101357.44;2567515;30;138487;-41
2021/08/27 08:57:43;;;;;;;3.72;1.40;;;17.20;99.90;;;16.09;85.01;101362.09;2566042;30;138643;-41
2021/08/27 09:00:12;;;;;;;6.60;1.77;;;17.30;99.90;;;16.06;86.44;101359.81;2568214;30;138230;-41
2021/08/27 09:02:40;;;;;;;4.80;1.25;;;17.20;99.90;;;16.01;86.05;101359.72;2569060;30;137334;-41
2021/08/27 09:05:08;;;;;;;;;;;17.10;99.90;;;16.12;87.41;101355.31;2567548;30;137399;-44
2021/08/27 09:07:36;;;;;;;5.68;1.45;;;17.20;99.90;;;16.32;83.40;101354.97;2565713;30;137178;-40
2021/08/27 09:10:05;;;;;;;;;;;17.30;99.90;;;16.70;85.79;101350.88;2568859;30;138213;-41
2021/08/27 09:12:32;;;;;;;4.65;1.17;;;17.50;99.90;;;17.15;85.46;101348.56;2568747;30;137830;-41
2021/08/27 09:15:07;;;;;;;3.83;1.38;;;17.80;99.90;;;17.46;83.34;101354.69;2567881;30;139038;-42
2021/08/27 09:17:46;;;;;;;5.68;1.10;;;18.10;99.90;;;17.64;83.68;101348.97;2569424;30;137526;-41
2021/08/27 09:20:21;;;;;;;3.40;1.10;;;18.40;99.90;;;17.73;83.82;101348.56;2569244;30;137267;-41
2021/08/27 09:22:55;;;;;;;4.03;0.93;;;18.50;99.90;;;17.60;80.87;101350.56;2569050;30;137184;-43
2021/08/27 09:25:25;;;;;;;5.03;1.45;;;18.60;99.90;;;17.42;78.57;101353.50;2568284;30;138249;-42
2021/08/27 09:28:11;;;;;;;4.93;1.02;;;18.50;99.90;;;17.11;77.07;101354.56;2568021;30;139058;-41
2021/08/27 09:30:52;;;;;;;6.10;1.45;;;18.30;99.90;;;16.76;76.42;101354.59;2566915;30;138260;-41
2021/08/27 09:33:29;;;;;;;4.25;1.10;;;18.10;99.90;;;16.69;79.03;101351.94;2569644;30;136749;-41
2021/08/27 09:36:01;;;;;;;3.22;0.93;;;17.90;99.90;;;16.76;80.19;101358.19;2567293;30;137604;-41
2021/08/27 09:38:34;;;;;;;11.02;1.67;;;17.90;99.90;;;16.92;83.12;101355.75;2568425;30;138235;-41
2021/08/27 09:41:06;;;;;;;4.35;0.98;;;18.00;99.90;;;17.17;80.62;101351.91;2567004;30;139528;-41
2021/08/27 09:43:46;;;;;;;3.85;1.23;;;18.10;99.90;;;17.57;81.62;101351.06;2565877;30;138021;-41
2021/08/27 09:46:43;;;;;;;2.75;1.00;;;18.40;99.90;;;17.66;81.01;101355.06;2568448;30;138182;-42
2021/08/27 09:49:34;;;;;;;3.53;1.02;;;18.50;99.90;;;17.56;77.89;101349.38;2568542;30;137752;-41
2021/08/27 09:52:20;;;;;;;4.15;1.33;;;18.60;99.90;;;17.31;76.09;101341.44;2568171;30;137132;-41
2021/08/27 09:54:48;;;;;;;4.65;1.27;;;18.50;99.90;;;17.25;77.55;101344.09;2568819;30;137514;-40
2021/08/27 09:57:26;;;;;;;;;;;18.40;99.90;;;17.25;77.00;101348.78;2569579;30;139153;-42
2021/08/27 09:59:55;;;;;;;3.05;1.00;;;18.30;99.90;;;17.39;80.02;101339.13;2568412;30;137958;-43
2021/08/27 10:02:31;;;;;;;3.88;1.02;;;18.40;99.90;;;17.45;77.26;101341.97;2568927;30;138168;-41
2021/08/27 10:05:00;;;;;;;6.35;1.20;;;18.50;99.90;;;17.72;76.56;101338.59;2568683;30;137490;-40
2021/08/27 10:07:42;;;;;;;4.22;1.10;;;18.60;99.90;;;17.95;74.88;101330.19;2568869;30;138389;-41
2021/08/27 10:10:14;;;;;;;6.30;1.10;;;18.80;99.90;;;18.23;74.53;101320.19;2565598;30;136788;-41
2021/08/27 10:12:44;;;;;;;2.55;0.90;;;19.00;99.90;;;18.50;74.89;101326.94;2568954;30;138221;-41
2021/08/27 10:15:12;;;;;;;2.65;1.00;;;19.30;99.90;;;18.61;72.67;101322.41;2568642;30;137573;-42
2021/08/27 10:17:41;;;;;;;3.55;0.98;;;19.40;99.90;;;18.85;74.93;101316.66;2566392;30;138595;-41
2021/08/27 10:20:11;;;;;;;4.68;1.00;;;19.60;99.90;;;19.06;72.73;101326.88;2567684;30;137254;-43
2021/08/27 10:22:41;;;;;;;1.88;0.85;;;19.80;99.90;;;19.06;68.19;101321.34;2569193;30;137103;-41
2021/08/27 10:25:12;;;;;;;4.00;0.90;;;19.90;99.90;;;18.94;69.12;101320.63;2566036;30;137783;-41
2021/08/27 10:27:46;;;;;;;2.40;0.80;;;19.90;99.90;;;18.85;70.61;101308.34;2568400;30;138341;-41
2021/08/27 10:30:15;;;;;;;4.07;0.95;;;19.90;99.90;;;18.86;70.09;101310.03;2567265;30;136859;-41
2021/08/27 10:32:43;;;;;;;3.25;0.98;;;19.80;99.90;;;18.99;71.66;101308.84;2565205;30;138687;-41
2021/08/27 10:35:34;;;;;;;3.83;1.00;;;19.90;99.90;;;19.28;69.20;101316.91;2568650;30;137630;-41
2021/08/27 10:38:02;;;;;;;4.18;0.90;;;20.00;99.90;;;19.54;68.99;101310.56;2567028;30;137342;-41
2021/08/27 10:40:37;;;;;;;3.42;1.00;;;20.20;99.90;;;19.84;67.86;101314.72;2568683;30;138082;-41
2021/08/27 10:43:07;;;;;;;3.58;0.90;;;20.50;99.90;;;20.07;68.97;101304.41;2566830;30;138773;-41
2021/08/27 10:45:41;;;;;;;2.35;0.77;;;20.70;99.90;;;20.11;67.17;101307.47;2566785;30;137053;-41
2021/08/27 10:48:25;;;;;;;2.65;0.88;;;20.90;99.90;;;19.89;65.82;101311.16;2568461;30;138327;-41